Symerton, Illinois
Current Conditions -  °F | °C
As of 8:35 PM on Tuesday 21 Oct 2014 (Local Time) from KJOT Reporting Station
Overcast Overcast  
Wind Chill: 45°   Ceiling: 2800
Heat Index: 48°   Visibility: 10mi
Dew Point: 39°   Wind: 7mph
Humidity: 71%   Direction: 20°NNE
Pressure: 30.25"   Gusts: NA
Location:  41.3199°N, 88.0518°W
Report Text: KJOT 220135Z AUTO 02006KT 10SM OVC028 09/04 A3025 RMK AO2 T00900039
Loading
Personal Weather Stations






























Interactive Weather Map New forecast layout! Learn more

10-Day Weather Forecast

Advertisements
Track Severe Weather on mobile